sensor_id;sensor_type;location;lat;lon;timestamp;P1;durP1;ratioP1;P2;durP2;ratioP2
70148;SDS011;57514;52.164;5.282;2023-04-25T00:00:22;13.13;;;3.60;;
70148;SDS011;57514;52.164;5.282;2023-04-25T00:02:49;18.23;;;4.80;;
70148;SDS011;57514;52.164;5.282;2023-04-25T00:05:16;17.95;;;4.60;;
70148;SDS011;57514;52.164;5.282;2023-04-25T00:07:44;14.65;;;4.13;;
70148;SDS011;57514;52.164;5.282;2023-04-25T00:10:13;12.13;;;4.03;;
70148;SDS011;57514;52.164;5.282;2023-04-25T00:12:40;13.40;;;4.43;;
70148;SDS011;57514;52.164;5.282;2023-04-25T00:15:08;14.00;;;3.33;;
70148;SDS011;57514;52.164;5.282;2023-04-25T00:17:35;12.38;;;3.35;;
70148;SDS011;57514;52.164;5.282;2023-04-25T00:20:05;20.50;;;5.30;;
70148;SDS011;57514;52.164;5.282;2023-04-25T00:22:35;14.60;;;4.22;;
70148;SDS011;57514;52.164;5.282;2023-04-25T00:25:04;21.77;;;4.72;;
70148;SDS011;57514;52.164;5.282;2023-04-25T00:27:32;15.10;;;4.88;;
70148;SDS011;57514;52.164;5.282;2023-04-25T00:29:59;17.45;;;3.83;;
70148;SDS011;57514;52.164;5.282;2023-04-25T00:32:27;15.75;;;4.18;;
70148;SDS011;57514;52.164;5.282;2023-04-25T00:34:55;17.95;;;4.50;;
70148;SDS011;57514;52.164;5.282;2023-04-25T00:37:24;19.73;;;4.00;;
70148;SDS011;57514;52.164;5.282;2023-04-25T00:39:51;17.73;;;4.32;;
70148;SDS011;57514;52.164;5.282;2023-04-25T00:42:20;16.13;;;4.38;;
70148;SDS011;57514;52.164;5.282;2023-04-25T00:44:47;19.40;;;4.47;;
70148;SDS011;57514;52.164;5.282;2023-04-25T00:47:15;14.25;;;3.80;;
70148;SDS011;57514;52.164;5.282;2023-04-25T00:49:42;16.02;;;4.72;;
70148;SDS011;57514;52.164;5.282;2023-04-25T00:52:11;14.63;;;4.82;;
70148;SDS011;57514;52.164;5.282;2023-04-25T00:54:38;17.42;;;4.10;;
70148;SDS011;57514;52.164;5.282;2023-04-25T00:57:05;14.52;;;4.03;;
70148;SDS011;57514;52.164;5.282;2023-04-25T00:59:33;14.98;;;4.28;;
70148;SDS011;57514;52.164;5.282;2023-04-25T01:02:00;15.95;;;4.20;;
70148;SDS011;57514;52.164;5.282;2023-04-25T01:04:28;13.18;;;4.30;;
70148;SDS011;57514;52.164;5.282;2023-04-25T01:06:55;16.65;;;4.32;;
70148;SDS011;57514;52.164;5.282;2023-04-25T01:09:23;11.75;;;4.25;;
70148;SDS011;57514;52.164;5.282;2023-04-25T01:11:50;13.50;;;3.75;;
70148;SDS011;57514;52.164;5.282;2023-04-25T01:14:17;18.88;;;4.55;;
70148;SDS011;57514;52.164;5.282;2023-04-25T01:16:45;21.85;;;4.35;;
70148;SDS011;57514;52.164;5.282;2023-04-25T01:19:12;19.05;;;4.55;;
70148;SDS011;57514;52.164;5.282;2023-04-25T01:21:45;15.15;;;3.80;;
70148;SDS011;57514;52.164;5.282;2023-04-25T01:24:13;18.48;;;3.90;;
70148;SDS011;57514;52.164;5.282;2023-04-25T01:26:41;14.98;;;3.80;;
70148;SDS011;57514;52.164;5.282;2023-04-25T01:29:20;17.85;;;4.63;;
70148;SDS011;57514;52.164;5.282;2023-04-25T01:31:47;15.52;;;4.10;;
70148;SDS011;57514;52.164;5.282;2023-04-25T01:34:15;10.13;;;3.80;;
70148;SDS011;57514;52.164;5.282;2023-04-25T01:36:42;14.07;;;4.10;;
70148;SDS011;57514;52.164;5.282;2023-04-25T01:39:09;18.23;;;4.03;;
70148;SDS011;57514;52.164;5.282;2023-04-25T01:41:37;15.20;;;3.88;;
70148;SDS011;57514;52.164;5.282;2023-04-25T01:44:05;10.00;;;3.95;;
70148;SDS011;57514;52.164;5.282;2023-04-25T01:46:35;15.45;;;4.10;;
70148;SDS011;57514;52.164;5.282;2023-04-25T01:49:04;18.40;;;4.63;;
70148;SDS011;57514;52.164;5.282;2023-04-25T01:51:31;13.40;;;4.28;;
70148;SDS011;57514;52.164;5.282;2023-04-25T01:53:59;12.07;;;3.70;;
70148;SDS011;57514;52.164;5.282;2023-04-25T01:56:32;11.68;;;3.47;;
70148;SDS011;57514;52.164;5.282;2023-04-25T01:59:00;11.52;;;3.72;;
70148;SDS011;57514;52.164;5.282;2023-04-25T02:01:39;18.05;;;3.83;;
70148;SDS011;57514;52.164;5.282;2023-04-25T02:04:16;19.92;;;4.10;;
70148;SDS011;57514;52.164;5.282;2023-04-25T02:06:43;14.18;;;4.00;;
70148;SDS011;57514;52.164;5.282;2023-04-25T02:09:11;16.02;;;4.25;;
70148;SDS011;57514;52.164;5.282;2023-04-25T02:11:44;13.93;;;3.05;;
70148;SDS011;57514;52.164;5.282;2023-04-25T02:14:43;15.07;;;4.25;;
70148;SDS011;57514;52.164;5.282;2023-04-25T02:17:18;15.23;;;3.92;;
70148;SDS011;57514;52.164;5.282;2023-04-25T02:19:45;15.82;;;3.08;;
70148;SDS011;57514;52.164;5.282;2023-04-25T02:22:12;12.23;;;3.45;;
70148;SDS011;57514;52.164;5.282;2023-04-25T02:24:40;9.90;;;3.70;;
70148;SDS011;57514;52.164;5.282;2023-04-25T02:27:07;15.95;;;4.15;;
70148;SDS011;57514;52.164;5.282;2023-04-25T02:29:34;9.57;;;2.97;;
70148;SDS011;57514;52.164;5.282;2023-04-25T02:32:02;15.95;;;3.50;;
70148;SDS011;57514;52.164;5.282;2023-04-25T02:34:29;13.25;;;3.92;;
70148;SDS011;57514;52.164;5.282;2023-04-25T02:36:59;18.80;;;3.75;;
70148;SDS011;57514;52.164;5.282;2023-04-25T02:39:26;9.63;;;3.45;;
70148;SDS011;57514;52.164;5.282;2023-04-25T02:41:54;9.60;;;3.72;;
70148;SDS011;57514;52.164;5.282;2023-04-25T02:44:22;15.07;;;3.67;;
70148;SDS011;57514;52.164;5.282;2023-04-25T02:46:49;13.57;;;3.90;;
70148;SDS011;57514;52.164;5.282;2023-04-25T02:49:17;15.15;;;3.97;;
70148;SDS011;57514;52.164;5.282;2023-04-25T02:51:44;14.90;;;3.83;;
70148;SDS011;57514;52.164;5.282;2023-04-25T02:54:11;19.40;;;4.45;;
70148;SDS011;57514;52.164;5.282;2023-04-25T02:56:42;14.18;;;4.20;;
70148;SDS011;57514;52.164;5.282;2023-04-25T02:59:15;13.50;;;4.10;;
70148;SDS011;57514;52.164;5.282;2023-04-25T03:01:42;16.27;;;4.00;;
70148;SDS011;57514;52.164;5.282;2023-04-25T03:04:09;16.05;;;4.30;;
70148;SDS011;57514;52.164;5.282;2023-04-25T03:06:37;15.73;;;4.25;;
70148;SDS011;57514;52.164;5.282;2023-04-25T03:09:04;17.00;;;4.05;;
70148;SDS011;57514;52.164;5.282;2023-04-25T03:11:32;16.52;;;4.07;;
70148;SDS011;57514;52.164;5.282;2023-04-25T03:14:00;14.38;;;3.95;;
70148;SDS011;57514;52.164;5.282;2023-04-25T03:16:27;17.00;;;4.03;;
70148;SDS011;57514;52.164;5.282;2023-04-25T03:18:54;12.38;;;4.57;;
70148;SDS011;57514;52.164;5.282;2023-04-25T03:21:22;16.02;;;3.35;;
70148;SDS011;57514;52.164;5.282;2023-04-25T03:23:50;14.23;;;3.75;;
70148;SDS011;57514;52.164;5.282;2023-04-25T03:26:18;15.57;;;5.13;;
70148;SDS011;57514;52.164;5.282;2023-04-25T03:28:47;12.80;;;3.67;;
70148;SDS011;57514;52.164;5.282;2023-04-25T03:31:14;12.93;;;3.42;;
70148;SDS011;57514;52.164;5.282;2023-04-25T03:33:42;17.70;;;4.07;;
70148;SDS011;57514;52.164;5.282;2023-04-25T03:36:09;13.57;;;3.95;;
70148;SDS011;57514;52.164;5.282;2023-04-25T03:38:37;15.32;;;4.55;;
70148;SDS011;57514;52.164;5.282;2023-04-25T03:41:05;13.18;;;4.15;;
70148;SDS011;57514;52.164;5.282;2023-04-25T03:43:39;12.75;;;3.70;;
70148;SDS011;57514;52.164;5.282;2023-04-25T03:46:10;11.05;;;3.92;;
70148;SDS011;57514;52.164;5.282;2023-04-25T03:48:39;16.92;;;3.60;;
70148;SDS011;57514;52.164;5.282;2023-04-25T03:51:08;16.50;;;3.47;;
70148;SDS011;57514;52.164;5.282;2023-04-25T03:53:38;13.45;;;3.60;;
70148;SDS011;57514;52.164;5.282;2023-04-25T03:56:18;11.38;;;3.63;;
70148;SDS011;57514;52.164;5.282;2023-04-25T03:58:52;12.57;;;4.03;;
70148;SDS011;57514;52.164;5.282;2023-04-25T04:01:22;11.82;;;3.78;;
70148;SDS011;57514;52.164;5.282;2023-04-25T04:03:49;16.13;;;3.67;;
70148;SDS011;57514;52.164;5.282;2023-04-25T04:06:18;17.45;;;3.95;;
70148;SDS011;57514;52.164;5.282;2023-04-25T04:08:51;10.48;;;2.80;;
70148;SDS011;57514;52.164;5.282;2023-04-25T04:11:18;18.33;;;4.32;;
70148;SDS011;57514;52.164;5.282;2023-04-25T04:13:46;15.10;;;3.17;;
70148;SDS011;57514;52.164;5.282;2023-04-25T04:16:14;9.05;;;2.42;;
70148;SDS011;57514;52.164;5.282;2023-04-25T04:18:42;12.02;;;2.80;;
70148;SDS011;57514;52.164;5.282;2023-04-25T04:21:10;13.65;;;3.20;;
70148;SDS011;57514;52.164;5.282;2023-04-25T04:23:39;8.07;;;3.13;;
70148;SDS011;57514;52.164;5.282;2023-04-25T04:26:08;11.75;;;3.05;;
70148;SDS011;57514;52.164;5.282;2023-04-25T04:29:05;9.23;;;2.72;;
70148;SDS011;57514;52.164;5.282;2023-04-25T04:31:46;11.15;;;2.90;;
70148;SDS011;57514;52.164;5.282;2023-04-25T04:34:14;7.45;;;2.72;;
70148;SDS011;57514;52.164;5.282;2023-04-25T04:36:42;12.38;;;2.78;;
70148;SDS011;57514;52.164;5.282;2023-04-25T04:39:12;8.15;;;2.42;;
70148;SDS011;57514;52.164;5.282;2023-04-25T04:41:53;12.70;;;3.10;;
70148;SDS011;57514;52.164;5.282;2023-04-25T04:44:39;12.40;;;3.45;;
70148;SDS011;57514;52.164;5.282;2023-04-25T04:47:30;11.40;;;3.65;;
70148;SDS011;57514;52.164;5.282;2023-04-25T04:50:11;10.55;;;2.90;;
70148;SDS011;57514;52.164;5.282;2023-04-25T04:53:11;12.57;;;2.67;;
70148;SDS011;57514;52.164;5.282;2023-04-25T04:55:46;10.27;;;2.92;;
70148;SDS011;57514;52.164;5.282;2023-04-25T04:58:27;9.35;;;2.53;;
70148;SDS011;57514;52.164;5.282;2023-04-25T05:01:05;14.63;;;3.33;;
70148;SDS011;57514;52.164;5.282;2023-04-25T05:03:53;10.02;;;2.75;;
70148;SDS011;57514;52.164;5.282;2023-04-25T05:06:47;8.90;;;3.30;;
70148;SDS011;57514;52.164;5.282;2023-04-25T05:09:17;8.52;;;2.38;;
70148;SDS011;57514;52.164;5.282;2023-04-25T05:15:10;9.60;;;2.50;;
70148;SDS011;57514;52.164;5.282;2023-04-25T05:17:56;10.57;;;2.70;;
70148;SDS011;57514;52.164;5.282;2023-04-25T05:20:38;11.30;;;2.97;;
70148;SDS011;57514;52.164;5.282;2023-04-25T05:23:24;10.93;;;2.78;;
70148;SDS011;57514;52.164;5.282;2023-04-25T05:26:03;9.35;;;2.80;;
70148;SDS011;57514;52.164;5.282;2023-04-25T05:28:41;14.25;;;3.13;;
70148;SDS011;57514;52.164;5.282;2023-04-25T05:31:27;11.55;;;3.00;;
70148;SDS011;57514;52.164;5.282;2023-04-25T05:34:01;9.85;;;2.97;;
70148;SDS011;57514;52.164;5.282;2023-04-25T05:36:58;10.98;;;2.95;;
70148;SDS011;57514;52.164;5.282;2023-04-25T05:39:26;8.40;;;2.22;;
70148;SDS011;57514;52.164;5.282;2023-04-25T05:42:12;18.40;;;3.38;;
70148;SDS011;57514;52.164;5.282;2023-04-25T05:44:48;11.88;;;2.70;;
70148;SDS011;57514;52.164;5.282;2023-04-25T05:47:28;11.73;;;3.00;;
70148;SDS011;57514;52.164;5.282;2023-04-25T05:50:10;9.13;;;2.60;;
70148;SDS011;57514;52.164;5.282;2023-04-25T05:53:00;10.25;;;3.38;;
70148;SDS011;57514;52.164;5.282;2023-04-25T05:55:41;8.65;;;2.13;;
70148;SDS011;57514;52.164;5.282;2023-04-25T05:58:35;9.45;;;2.47;;
70148;SDS011;57514;52.164;5.282;2023-04-25T06:01:02;7.82;;;2.20;;
70148;SDS011;57514;52.164;5.282;2023-04-25T06:03:29;7.30;;;1.95;;
70148;SDS011;57514;52.164;5.282;2023-04-25T06:05:57;7.90;;;2.30;;
70148;SDS011;57514;52.164;5.282;2023-04-25T06:08:25;11.07;;;2.83;;
70148;SDS011;57514;52.164;5.282;2023-04-25T06:10:52;8.15;;;2.78;;
70148;SDS011;57514;52.164;5.282;2023-04-25T06:13:21;7.65;;;2.10;;
70148;SDS011;57514;52.164;5.282;2023-04-25T06:15:49;7.90;;;2.30;;
70148;SDS011;57514;52.164;5.282;2023-04-25T06:18:16;15.45;;;2.75;;
70148;SDS011;57514;52.164;5.282;2023-04-25T06:20:43;9.48;;;2.55;;
70148;SDS011;57514;52.164;5.282;2023-04-25T06:23:11;4.55;;;2.40;;
70148;SDS011;57514;52.164;5.282;2023-04-25T06:25:51;9.15;;;2.15;;
70148;SDS011;57514;52.164;5.282;2023-04-25T06:28:19;8.10;;;2.00;;
70148;SDS011;57514;52.164;5.282;2023-04-25T06:30:48;6.10;;;2.22;;
70148;SDS011;57514;52.164;5.282;2023-04-25T06:33:17;10.45;;;2.58;;
70148;SDS011;57514;52.164;5.282;2023-04-25T06:35:46;10.88;;;2.50;;
70148;SDS011;57514;52.164;5.282;2023-04-25T06:38:17;9.45;;;2.30;;
70148;SDS011;57514;52.164;5.282;2023-04-25T06:40:47;8.95;;;2.33;;
70148;SDS011;57514;52.164;5.282;2023-04-25T06:43:16;7.55;;;2.20;;
70148;SDS011;57514;52.164;5.282;2023-04-25T06:46:01;10.38;;;2.10;;
70148;SDS011;57514;52.164;5.282;2023-04-25T06:48:31;7.70;;;2.20;;
70148;SDS011;57514;52.164;5.282;2023-04-25T06:50:59;8.90;;;1.88;;
70148;SDS011;57514;52.164;5.282;2023-04-25T06:53:27;6.70;;;2.22;;
70148;SDS011;57514;52.164;5.282;2023-04-25T06:56:01;5.72;;;1.85;;
70148;SDS011;57514;52.164;5.282;2023-04-25T06:58:40;7.30;;;2.15;;
70148;SDS011;57514;52.164;5.282;2023-04-25T07:01:26;7.50;;;2.80;;
70148;SDS011;57514;52.164;5.282;2023-04-25T07:03:53;8.68;;;2.30;;
70148;SDS011;57514;52.164;5.282;2023-04-25T07:06:22;8.25;;;2.60;;
70148;SDS011;57514;52.164;5.282;2023-04-25T07:08:49;3.90;;;1.77;;
70148;SDS011;57514;52.164;5.282;2023-04-25T07:11:17;8.05;;;1.90;;
70148;SDS011;57514;52.164;5.282;2023-04-25T07:13:44;9.40;;;2.35;;
70148;SDS011;57514;52.164;5.282;2023-04-25T07:16:11;12.52;;;2.63;;
70148;SDS011;57514;52.164;5.282;2023-04-25T07:18:39;6.82;;;2.17;;
70148;SDS011;57514;52.164;5.282;2023-04-25T07:21:08;9.05;;;2.38;;
70148;SDS011;57514;52.164;5.282;2023-04-25T07:23:36;13.38;;;2.33;;
70148;SDS011;57514;52.164;5.282;2023-04-25T07:26:09;5.88;;;1.80;;
70148;SDS011;57514;52.164;5.282;2023-04-25T07:28:43;7.25;;;1.92;;
70148;SDS011;57514;52.164;5.282;2023-04-25T07:31:10;8.82;;;2.55;;
70148;SDS011;57514;52.164;5.282;2023-04-25T07:33:38;7.15;;;1.90;;
70148;SDS011;57514;52.164;5.282;2023-04-25T07:36:05;10.65;;;1.88;;
70148;SDS011;57514;52.164;5.282;2023-04-25T07:38:33;11.02;;;2.00;;
70148;SDS011;57514;52.164;5.282;2023-04-25T07:41:00;9.25;;;1.88;;
70148;SDS011;57514;52.164;5.282;2023-04-25T07:43:28;6.88;;;2.00;;
70148;SDS011;57514;52.164;5.282;2023-04-25T07:45:57;10.30;;;2.40;;
70148;SDS011;57514;52.164;5.282;2023-04-25T07:48:27;9.38;;;2.08;;
70148;SDS011;57514;52.164;5.282;2023-04-25T07:50:58;9.30;;;1.98;;
70148;SDS011;57514;52.164;5.282;2023-04-25T07:53:26;11.60;;;2.22;;
70148;SDS011;57514;52.164;5.282;2023-04-25T07:55:58;10.13;;;1.90;;
70148;SDS011;57514;52.164;5.282;2023-04-25T07:58:27;10.43;;;2.10;;
70148;SDS011;57514;52.164;5.282;2023-04-25T08:00:58;6.88;;;1.88;;
70148;SDS011;57514;52.164;5.282;2023-04-25T08:03:32;9.45;;;2.15;;
70148;SDS011;57514;52.164;5.282;2023-04-25T08:06:02;10.27;;;2.10;;
70148;SDS011;57514;52.164;5.282;2023-04-25T08:08:40;13.45;;;2.25;;
70148;SDS011;57514;52.164;5.282;2023-04-25T08:11:09;7.53;;;1.80;;
70148;SDS011;57514;52.164;5.282;2023-04-25T08:13:36;8.70;;;1.90;;
70148;SDS011;57514;52.164;5.282;2023-04-25T08:16:04;4.13;;;1.40;;
70148;SDS011;57514;52.164;5.282;2023-04-25T08:18:31;4.47;;;1.60;;
70148;SDS011;57514;52.164;5.282;2023-04-25T08:20:58;8.50;;;2.10;;
70148;SDS011;57514;52.164;5.282;2023-04-25T08:23:26;5.60;;;1.83;;
70148;SDS011;57514;52.164;5.282;2023-04-25T08:26:02;9.07;;;1.75;;
70148;SDS011;57514;52.164;5.282;2023-04-25T08:28:33;5.97;;;1.80;;
70148;SDS011;57514;52.164;5.282;2023-04-25T08:31:01;6.22;;;1.63;;
70148;SDS011;57514;52.164;5.282;2023-04-25T08:33:36;5.75;;;1.75;;
70148;SDS011;57514;52.164;5.282;2023-04-25T08:36:16;9.05;;;2.38;;
70148;SDS011;57514;52.164;5.282;2023-04-25T08:39:05;8.77;;;1.92;;
70148;SDS011;57514;52.164;5.282;2023-04-25T08:41:40;8.73;;;2.50;;
70148;SDS011;57514;52.164;5.282;2023-04-25T08:44:08;5.63;;;1.80;;
70148;SDS011;57514;52.164;5.282;2023-04-25T08:46:37;6.78;;;1.70;;
70148;SDS011;57514;52.164;5.282;2023-04-25T08:49:18;9.57;;;1.73;;
70148;SDS011;57514;52.164;5.282;2023-04-25T08:51:45;7.55;;;1.33;;
70148;SDS011;57514;52.164;5.282;2023-04-25T08:54:15;5.68;;;1.83;;
70148;SDS011;57514;52.164;5.282;2023-04-25T08:56:52;8.60;;;1.60;;
70148;SDS011;57514;52.164;5.282;2023-04-25T08:59:21;6.85;;;1.95;;
70148;SDS011;57514;52.164;5.282;2023-04-25T09:01:49;5.25;;;1.52;;
70148;SDS011;57514;52.164;5.282;2023-04-25T09:04:20;4.18;;;1.00;;
70148;SDS011;57514;52.164;5.282;2023-04-25T09:06:48;5.18;;;1.60;;
70148;SDS011;57514;52.164;5.282;2023-04-25T09:09:16;7.70;;;1.60;;
70148;SDS011;57514;52.164;5.282;2023-04-25T09:11:43;5.43;;;1.58;;
70148;SDS011;57514;52.164;5.282;2023-04-25T09:14:17;7.40;;;1.35;;
70148;SDS011;57514;52.164;5.282;2023-04-25T09:17:05;8.48;;;1.80;;
70148;SDS011;57514;52.164;5.282;2023-04-25T09:19:39;4.90;;;1.15;;
70148;SDS011;57514;52.164;5.282;2023-04-25T09:22:19;5.57;;;1.23;;
70148;SDS011;57514;52.164;5.282;2023-04-25T09:24:49;3.85;;;1.33;;
70148;SDS011;57514;52.164;5.282;2023-04-25T09:27:19;7.57;;;1.30;;
70148;SDS011;57514;52.164;5.282;2023-04-25T09:29:59;5.25;;;1.38;;
70148;SDS011;57514;52.164;5.282;2023-04-25T09:32:35;7.38;;;2.15;;
70148;SDS011;57514;52.164;5.282;2023-04-25T09:35:03;6.82;;;1.42;;
70148;SDS011;57514;52.164;5.282;2023-04-25T09:37:31;10.90;;;2.33;;
70148;SDS011;57514;52.164;5.282;2023-04-25T09:40:06;4.60;;;1.40;;
70148;SDS011;57514;52.164;5.282;2023-04-25T09:42:46;6.22;;;1.67;;
70148;SDS011;57514;52.164;5.282;2023-04-25T09:45:14;4.57;;;2.08;;
70148;SDS011;57514;52.164;5.282;2023-04-25T09:47:43;5.00;;;1.48;;
70148;SDS011;57514;52.164;5.282;2023-04-25T09:50:15;7.10;;;1.83;;
70148;SDS011;57514;52.164;5.282;2023-04-25T09:52:48;5.50;;;1.60;;
70148;SDS011;57514;52.164;5.282;2023-04-25T09:58:06;6.95;;;1.77;;
70148;SDS011;57514;52.164;5.282;2023-04-25T10:00:34;5.18;;;1.70;;
70148;SDS011;57514;52.164;5.282;2023-04-25T10:03:13;6.53;;;1.55;;
70148;SDS011;57514;52.164;5.282;2023-04-25T10:06:01;5.00;;;1.70;;
70148;SDS011;57514;52.164;5.282;2023-04-25T10:08:31;6.07;;;1.98;;
70148;SDS011;57514;52.164;5.282;2023-04-25T10:11:06;6.82;;;1.75;;
70148;SDS011;57514;52.164;5.282;2023-04-25T10:13:33;7.38;;;2.38;;
70148;SDS011;57514;52.164;5.282;2023-04-25T10:16:03;6.43;;;1.67;;
70148;SDS011;57514;52.164;5.282;2023-04-25T10:18:31;4.90;;;1.38;;
70148;SDS011;57514;52.164;5.282;2023-04-25T10:21:03;6.05;;;1.75;;
70148;SDS011;57514;52.164;5.282;2023-04-25T10:23:31;7.72;;;1.90;;
70148;SDS011;57514;52.164;5.282;2023-04-25T10:26:00;8.57;;;1.67;;
70148;SDS011;57514;52.164;5.282;2023-04-25T10:28:28;4.68;;;1.42;;
70148;SDS011;57514;52.164;5.282;2023-04-25T10:31:02;6.80;;;1.80;;
70148;SDS011;57514;52.164;5.282;2023-04-25T10:33:37;8.88;;;1.80;;
70148;SDS011;57514;52.164;5.282;2023-04-25T10:36:17;5.78;;;1.63;;
70148;SDS011;57514;52.164;5.282;2023-04-25T10:38:45;3.30;;;1.10;;
70148;SDS011;57514;52.164;5.282;2023-04-25T10:41:16;3.42;;;1.30;;
70148;SDS011;57514;52.164;5.282;2023-04-25T10:43:45;7.72;;;1.17;;
70148;SDS011;57514;52.164;5.282;2023-04-25T10:46:18;3.67;;;1.30;;
70148;SDS011;57514;52.164;5.282;2023-04-25T10:48:46;5.40;;;1.65;;
70148;SDS011;57514;52.164;5.282;2023-04-25T10:54:04;4.25;;;1.45;;
70148;SDS011;57514;52.164;5.282;2023-04-25T10:56:33;3.03;;;1.23;;
70148;SDS011;57514;52.164;5.282;2023-04-25T10:59:07;4.93;;;1.50;;
70148;SDS011;57514;52.164;5.282;2023-04-25T11:01:43;4.28;;;1.20;;
70148;SDS011;57514;52.164;5.282;2023-04-25T11:04:30;6.95;;;1.55;;
70148;SDS011;57514;52.164;5.282;2023-04-25T11:09:49;6.05;;;1.60;;
70148;SDS011;57514;52.164;5.282;2023-04-25T11:12:16;7.30;;;1.73;;
70148;SDS011;57514;52.164;5.282;2023-04-25T11:14:44;5.30;;;1.50;;
70148;SDS011;57514;52.164;5.282;2023-04-25T11:17:11;5.60;;;1.92;;
70148;SDS011;57514;52.164;5.282;2023-04-25T11:19:38;5.90;;;1.85;;
70148;SDS011;57514;52.164;5.282;2023-04-25T11:22:05;5.38;;;1.67;;
70148;SDS011;57514;52.164;5.282;2023-04-25T11:24:34;6.05;;;1.73;;
70148;SDS011;57514;52.164;5.282;2023-04-25T11:27:03;4.90;;;1.50;;
70148;SDS011;57514;52.164;5.282;2023-04-25T11:29:33;4.05;;;1.60;;
70148;SDS011;57514;52.164;5.282;2023-04-25T11:32:01;4.43;;;1.73;;
70148;SDS011;57514;52.164;5.282;2023-04-25T11:34:30;3.67;;;1.63;;
70148;SDS011;57514;52.164;5.282;2023-04-25T11:36:57;3.78;;;1.63;;
70148;SDS011;57514;52.164;5.282;2023-04-25T11:39:26;5.10;;;1.90;;
70148;SDS011;57514;52.164;5.282;2023-04-25T11:41:53;6.18;;;1.90;;
70148;SDS011;57514;52.164;5.282;2023-04-25T11:44:21;5.15;;;1.70;;
70148;SDS011;57514;52.164;5.282;2023-04-25T11:46:48;5.28;;;1.50;;
70148;SDS011;57514;52.164;5.282;2023-04-25T11:49:16;6.13;;;1.60;;
70148;SDS011;57514;52.164;5.282;2023-04-25T11:51:47;6.15;;;1.50;;
70148;SDS011;57514;52.164;5.282;2023-04-25T11:54:15;6.57;;;1.73;;
70148;SDS011;57514;52.164;5.282;2023-04-25T11:56:42;3.92;;;1.63;;
70148;SDS011;57514;52.164;5.282;2023-04-25T11:59:10;5.22;;;1.73;;
70148;SDS011;57514;52.164;5.282;2023-04-25T12:01:39;6.70;;;1.42;;
70148;SDS011;57514;52.164;5.282;2023-04-25T12:04:21;5.55;;;1.70;;
70148;SDS011;57514;52.164;5.282;2023-04-25T12:06:50;6.07;;;1.70;;
70148;SDS011;57514;52.164;5.282;2023-04-25T12:09:20;8.82;;;1.95;;
70148;SDS011;57514;52.164;5.282;2023-04-25T12:11:57;6.57;;;2.10;;
70148;SDS011;57514;52.164;5.282;2023-04-25T12:16:58;8.40;;;1.98;;
70148;SDS011;57514;52.164;5.282;2023-04-25T12:19:30;5.57;;;1.90;;
70148;SDS011;57514;52.164;5.282;2023-04-25T12:21:59;7.60;;;1.88;;
70148;SDS011;57514;52.164;5.282;2023-04-25T12:24:27;6.68;;;1.95;;
70148;SDS011;57514;52.164;5.282;2023-04-25T12:27:01;8.52;;;2.33;;
70148;SDS011;57514;52.164;5.282;2023-04-25T12:29:30;6.45;;;2.30;;
70148;SDS011;57514;52.164;5.282;2023-04-25T12:32:13;8.82;;;2.47;;
70148;SDS011;57514;52.164;5.282;2023-04-25T12:34:40;6.43;;;2.35;;
70148;SDS011;57514;52.164;5.282;2023-04-25T12:37:08;4.63;;;1.80;;
70148;SDS011;57514;52.164;5.282;2023-04-25T12:39:36;5.03;;;1.55;;
70148;SDS011;57514;52.164;5.282;2023-04-25T12:42:04;6.38;;;1.80;;
70148;SDS011;57514;52.164;5.282;2023-04-25T12:44:35;6.68;;;1.90;;
70148;SDS011;57514;52.164;5.282;2023-04-25T12:47:02;8.25;;;1.85;;
70148;SDS011;57514;52.164;5.282;2023-04-25T12:49:30;5.07;;;1.42;;
70148;SDS011;57514;52.164;5.282;2023-04-25T12:51:58;4.68;;;1.55;;
70148;SDS011;57514;52.164;5.282;2023-04-25T12:54:25;4.72;;;1.70;;
70148;SDS011;57514;52.164;5.282;2023-04-25T12:56:52;5.72;;;1.60;;
70148;SDS011;57514;52.164;5.282;2023-04-25T12:59:19;5.15;;;1.50;;
70148;SDS011;57514;52.164;5.282;2023-04-25T13:01:47;7.97;;;1.60;;
70148;SDS011;57514;52.164;5.282;2023-04-25T13:04:14;5.95;;;1.58;;
70148;SDS011;57514;52.164;5.282;2023-04-25T13:06:42;4.50;;;1.50;;
70148;SDS011;57514;52.164;5.282;2023-04-25T13:09:10;5.47;;;1.38;;
70148;SDS011;57514;52.164;5.282;2023-04-25T13:11:38;6.82;;;1.63;;
70148;SDS011;57514;52.164;5.282;2023-04-25T13:14:07;4.95;;;1.33;;
70148;SDS011;57514;52.164;5.282;2023-04-25T13:16:34;3.42;;;1.30;;
70148;SDS011;57514;52.164;5.282;2023-04-25T13:19:02;3.15;;;1.13;;
70148;SDS011;57514;52.164;5.282;2023-04-25T13:21:32;3.75;;;1.42;;
70148;SDS011;57514;52.164;5.282;2023-04-25T13:24:00;5.75;;;1.80;;
70148;SDS011;57514;52.164;5.282;2023-04-25T13:26:26;3.20;;;1.40;;
70148;SDS011;57514;52.164;5.282;2023-04-25T13:28:54;3.47;;;1.40;;
70148;SDS011;57514;52.164;5.282;2023-04-25T13:31:21;5.55;;;2.00;;
70148;SDS011;57514;52.164;5.282;2023-04-25T13:33:48;5.50;;;1.55;;
70148;SDS011;57514;52.164;5.282;2023-04-25T13:36:16;4.75;;;1.67;;
70148;SDS011;57514;52.164;5.282;2023-04-25T13:38:43;5.80;;;1.50;;
70148;SDS011;57514;52.164;5.282;2023-04-25T13:41:11;5.75;;;1.50;;
70148;SDS011;57514;52.164;5.282;2023-04-25T13:43:44;3.47;;;0.98;;
70148;SDS011;57514;52.164;5.282;2023-04-25T13:46:14;4.53;;;1.55;;
70148;SDS011;57514;52.164;5.282;2023-04-25T13:49:02;8.55;;;1.85;;
70148;SDS011;57514;52.164;5.282;2023-04-25T13:51:38;5.03;;;1.45;;
70148;SDS011;57514;52.164;5.282;2023-04-25T13:54:09;4.55;;;1.48;;
70148;SDS011;57514;52.164;5.282;2023-04-25T13:56:39;4.18;;;1.35;;
70148;SDS011;57514;52.164;5.282;2023-04-25T13:59:08;4.22;;;1.60;;
70148;SDS011;57514;52.164;5.282;2023-04-25T14:01:35;4.88;;;1.40;;
70148;SDS011;57514;52.164;5.282;2023-04-25T14:04:03;5.57;;;1.52;;
70148;SDS011;57514;52.164;5.282;2023-04-25T14:06:36;7.28;;;1.70;;
70148;SDS011;57514;52.164;5.282;2023-04-25T14:09:04;6.05;;;1.40;;
70148;SDS011;57514;52.164;5.282;2023-04-25T14:11:35;7.03;;;1.33;;
70148;SDS011;57514;52.164;5.282;2023-04-25T14:14:05;6.38;;;1.60;;
70148;SDS011;57514;52.164;5.282;2023-04-25T14:16:35;6.47;;;1.65;;
70148;SDS011;57514;52.164;5.282;2023-04-25T14:19:02;6.45;;;1.80;;
70148;SDS011;57514;52.164;5.282;2023-04-25T14:21:32;5.93;;;1.80;;
70148;SDS011;57514;52.164;5.282;2023-04-25T14:23:59;5.18;;;1.73;;
70148;SDS011;57514;52.164;5.282;2023-04-25T14:26:29;4.95;;;1.55;;
70148;SDS011;57514;52.164;5.282;2023-04-25T14:28:56;7.18;;;1.95;;
70148;SDS011;57514;52.164;5.282;2023-04-25T14:31:26;7.70;;;1.80;;
70148;SDS011;57514;52.164;5.282;2023-04-25T14:33:53;6.60;;;2.00;;
70148;SDS011;57514;52.164;5.282;2023-04-25T14:36:25;6.40;;;1.90;;
70148;SDS011;57514;52.164;5.282;2023-04-25T14:38:55;5.35;;;1.50;;
70148;SDS011;57514;52.164;5.282;2023-04-25T14:41:22;4.97;;;1.70;;
70148;SDS011;57514;52.164;5.282;2023-04-25T14:43:49;4.50;;;1.70;;
70148;SDS011;57514;52.164;5.282;2023-04-25T14:46:17;4.35;;;1.67;;
70148;SDS011;57514;52.164;5.282;2023-04-25T14:48:45;4.85;;;1.48;;
70148;SDS011;57514;52.164;5.282;2023-04-25T14:51:13;6.47;;;1.83;;
70148;SDS011;57514;52.164;5.282;2023-04-25T14:53:41;7.75;;;1.95;;
70148;SDS011;57514;52.164;5.282;2023-04-25T14:56:08;5.95;;;2.03;;
70148;SDS011;57514;52.164;5.282;2023-04-25T14:58:35;7.25;;;1.80;;
70148;SDS011;57514;52.164;5.282;2023-04-25T15:01:06;5.47;;;1.83;;
70148;SDS011;57514;52.164;5.282;2023-04-25T15:03:43;3.55;;;1.42;;
70148;SDS011;57514;52.164;5.282;2023-04-25T15:06:11;4.65;;;1.63;;
70148;SDS011;57514;52.164;5.282;2023-04-25T15:08:38;2.80;;;1.73;;
70148;SDS011;57514;52.164;5.282;2023-04-25T15:11:06;3.55;;;1.30;;
70148;SDS011;57514;52.164;5.282;2023-04-25T15:13:33;4.57;;;1.80;;
70148;SDS011;57514;52.164;5.282;2023-04-25T15:16:01;3.67;;;1.60;;
70148;SDS011;57514;52.164;5.282;2023-04-25T15:18:31;4.38;;;1.73;;